Time;durP1;ratioP1;P1;durP2;ratioP2;P2;SDS_P1;SDS_P2;PMS_P1;PMS_P2;Temp;Humidity;BMP_temperature;BMP_pressure;BME280_temperature;BME280_humidity;BME280_pressure;Samples;Min_cycle;Max_cycle;Signal;HPM_P1;HPM_P2
2023/09/13 00:01:43;;;;;;;13.30;10.75;;;;;;;;;;6093236;23;20010;-79
2023/09/13 00:04:09;;;;;;;13.10;10.55;;;;;;;;;;6067991;23;20010;-77
2023/09/13 00:06:34;;;;;;;14.60;10.65;;;;;;;;;;6094196;23;20383;-79
2023/09/13 00:09:00;;;;;;;18.42;10.88;;;;;;;;;;6068427;23;20452;-76
2023/09/13 00:11:26;;;;;;;14.82;10.77;;;;;;;;;;6094880;23;20009;-78
2023/09/13 00:13:51;;;;;;;14.35;10.85;;;;;;;;;;6067944;23;20010;-79
2023/09/13 00:16:17;;;;;;;13.82;9.60;;;;;;;;;;6094194;23;20030;-78
2023/09/13 00:18:42;;;;;;;15.32;11.00;;;;;;;;;;6067563;23;20030;-77
2023/09/13 00:21:12;;;;;;;14.35;10.48;;;;;;;;;;6093673;23;20049;-76
2023/09/13 00:23:38;;;;;;;17.88;10.70;;;;;;;;;;6093933;23;20014;-77
2023/09/13 00:26:04;;;;;;;13.20;10.40;;;;;;;;;;6079510;23;20441;-78
2023/09/13 00:28:30;;;;;;;13.23;9.65;;;;;;;;;;6104621;23;20412;-79
2023/09/13 00:30:57;;;;;;;13.43;10.23;;;;;;;;;;6079490;23;20009;-78
2023/09/13 00:33:23;;;;;;;16.52;10.10;;;;;;;;;;6096428;23;20026;-78
2023/09/13 00:35:49;;;;;;;15.02;10.65;;;;;;;;;;6096267;23;20018;-79
2023/09/13 00:38:15;;;;;;;13.25;10.70;;;;;;;;;;6095751;23;20006;-79
2023/09/13 00:40:40;;;;;;;18.42;10.77;;;;;;;;;;6095249;23;20006;-78
2023/09/13 00:43:06;;;;;;;15.88;10.73;;;;;;;;;;6095139;23;20355;-78
2023/09/13 00:45:33;;;;;;;12.70;10.35;;;;;;;;;;6095121;23;20009;-78
2023/09/13 00:47:59;;;;;;;11.65;9.90;;;;;;;;;;6094959;23;20424;-78
2023/09/13 00:50:26;;;;;;;14.73;10.43;;;;;;;;;;6069546;23;20058;-77
2023/09/13 00:52:52;;;;;;;14.10;10.40;;;;;;;;;;6069368;23;20002;-78
2023/09/13 00:55:20;;;;;;;14.20;10.25;;;;;;;;;;6095271;23;20002;-78
2023/09/13 00:57:47;;;;;;;12.68;10.07;;;;;;;;;;6095007;23;20056;-78
2023/09/13 01:00:14;;;;;;;12.85;9.70;;;;;;;;;;6095138;23;20006;-78
2023/09/13 01:02:40;;;;;;;17.67;10.88;;;;;;;;;;6069622;23;20090;-78
2023/09/13 01:05:13;;;;;;;14.52;10.75;;;;;;;;;;6069373;23;20010;-79
2023/09/13 01:07:42;;;;;;;15.23;10.38;;;;;;;;;;6069510;23;20006;-79
2023/09/13 01:10:09;;;;;;;14.30;10.68;;;;;;;;;;6070695;23;20017;-79
2023/09/13 01:12:35;;;;;;;12.18;10.23;;;;;;;;;;6097075;23;20109;-76
2023/09/13 01:15:06;;;;;;;12.90;9.75;;;;;;;;;;6104630;23;20086;-80
2023/09/13 01:17:56;;;;;;;11.77;10.57;;;;;;;;;;6109430;23;20010;-79
2023/09/13 01:20:25;;;;;;;12.60;9.55;;;;;;;;;;6085514;23;19990;-79
2023/09/13 01:23:08;;;;;;;15.85;10.57;;;;;;;;;;6115123;23;20133;-79
2023/09/13 01:25:57;;;;;;;13.02;10.27;;;;;;;;;;6104438;23;20017;-80
2023/09/13 01:28:46;;;;;;;13.45;9.85;;;;;;;;;;6060957;23;20014;-78
2023/09/13 01:31:13;;;;;;;11.57;9.05;;;;;;;;;;6070125;23;20006;-79
2023/09/13 01:33:39;;;;;;;15.98;10.35;;;;;;;;;;6094462;23;20006;-79
2023/09/13 01:36:05;;;;;;;12.32;9.95;;;;;;;;;;6094863;23;20037;-78
2023/09/13 01:38:31;;;;;;;14.13;9.93;;;;;;;;;;6069247;23;20319;-79
2023/09/13 01:41:23;;;;;;;12.80;10.13;;;;;;;;;;6069424;23;20118;-78
2023/09/13 01:43:54;;;;;;;15.60;10.57;;;;;;;;;;6074140;23;20010;-78
2023/09/13 01:46:27;;;;;;;14.15;10.85;;;;;;;;;;6071009;23;20041;-78
2023/09/13 01:48:57;;;;;;;15.70;10.88;;;;;;;;;;6069251;23;20450;-77
2023/09/13 01:51:27;;;;;;;16.42;10.75;;;;;;;;;;6069418;23;20022;-77
2023/09/13 01:53:55;;;;;;;15.57;10.18;;;;;;;;;;6093954;23;20006;-77
2023/09/13 01:56:21;;;;;;;15.43;10.27;;;;;;;;;;6094522;23;20383;-78
2023/09/13 01:58:50;;;;;;;14.40;9.60;;;;;;;;;;6068394;23;20014;-77
2023/09/13 02:01:17;;;;;;;11.07;9.93;;;;;;;;;;6093982;23;20006;-78
2023/09/13 02:03:44;;;;;;;15.50;9.73;;;;;;;;;;6068014;23;20495;-79
2023/09/13 02:06:10;;;;;;;13.05;9.77;;;;;;;;;;6093999;23;20084;-79
2023/09/13 02:08:37;;;;;;;14.75;10.02;;;;;;;;;;6068540;23;20443;-77
2023/09/13 02:11:02;;;;;;;16.95;10.70;;;;;;;;;;6094085;23;20009;-78
2023/09/13 02:13:28;;;;;;;16.10;11.02;;;;;;;;;;6068126;23;20090;-77
2023/09/13 02:15:53;;;;;;;12.23;10.20;;;;;;;;;;6092985;23;20014;-77
2023/09/13 02:18:19;;;;;;;12.55;10.43;;;;;;;;;;6067805;23;20118;-79
2023/09/13 02:20:45;;;;;;;11.52;9.75;;;;;;;;;;6067646;23;20471;-78
2023/09/13 02:23:10;;;;;;;14.20;10.57;;;;;;;;;;6068219;23;20045;-79
2023/09/13 02:25:40;;;;;;;13.93;10.52;;;;;;;;;;6068598;23;20010;-78
2023/09/13 02:28:06;;;;;;;14.05;10.27;;;;;;;;;;6094441;23;20006;-79
2023/09/13 02:30:34;;;;;;;15.90;10.77;;;;;;;;;;6094089;23;20002;-79
2023/09/13 02:33:00;;;;;;;13.95;11.00;;;;;;;;;;6068032;23;20499;-78
2023/09/13 02:35:25;;;;;;;14.57;10.52;;;;;;;;;;6068235;23;20013;-78
2023/09/13 02:37:51;;;;;;;12.57;10.52;;;;;;;;;;6068272;23;20003;-78
2023/09/13 02:40:17;;;;;;;15.65;10.73;;;;;;;;;;6068192;23;20010;-78
2023/09/13 02:42:43;;;;;;;14.45;11.13;;;;;;;;;;6093851;23;20002;-78
2023/09/13 02:45:09;;;;;;;12.95;10.00;;;;;;;;;;6099144;23;20010;-78
2023/09/13 02:47:35;;;;;;;16.77;10.57;;;;;;;;;;6077979;23;20044;-79
2023/09/13 02:50:01;;;;;;;15.43;11.30;;;;;;;;;;6089628;23;20010;-77
2023/09/13 02:52:30;;;;;;;13.18;10.52;;;;;;;;;;6115334;23;20313;-78
2023/09/13 02:54:57;;;;;;;18.42;11.13;;;;;;;;;;6097499;23;20010;-79
2023/09/13 02:57:23;;;;;;;19.27;11.98;;;;;;;;;;6094442;23;20002;-78
2023/09/13 02:59:49;;;;;;;14.25;11.52;;;;;;;;;;6068196;23;20034;-76
2023/09/13 03:02:14;;;;;;;15.70;10.60;;;;;;;;;;6096158;23;20006;-77
2023/09/13 03:04:40;;;;;;;17.75;11.32;;;;;;;;;;6095944;23;20033;-78
2023/09/13 03:07:06;;;;;;;14.75;10.70;;;;;;;;;;6095019;23;20298;-79
2023/09/13 03:09:32;;;;;;;16.52;10.50;;;;;;;;;;6068610;23;20010;-79
2023/09/13 03:11:57;;;;;;;11.85;10.48;;;;;;;;;;6093703;23;20369;-78
2023/09/13 03:14:23;;;;;;;15.95;10.82;;;;;;;;;;6094686;23;20010;-79
2023/09/13 03:16:48;;;;;;;14.23;9.93;;;;;;;;;;6093806;23;20376;-77
2023/09/13 03:19:14;;;;;;;15.63;10.35;;;;;;;;;;6063757;23;20031;-79
2023/09/13 03:21:43;;;;;;;13.07;11.15;;;;;;;;;;6065299;23;20012;-78
2023/09/13 03:24:10;;;;;;;15.00;10.85;;;;;;;;;;6064042;23;20017;-79
2023/09/13 03:26:35;;;;;;;19.42;11.45;;;;;;;;;;6089090;23;20085;-77
2023/09/13 03:29:01;;;;;;;15.13;11.52;;;;;;;;;;6065435;23;20010;-77
2023/09/13 03:31:27;;;;;;;14.45;10.15;;;;;;;;;;6063263;23;20003;-78
2023/09/13 03:33:55;;;;;;;13.48;10.57;;;;;;;;;;6062809;23;20017;-78
2023/09/13 03:36:21;;;;;;;15.85;11.50;;;;;;;;;;6063594;23;20007;-78
2023/09/13 03:38:47;;;;;;;18.38;11.48;;;;;;;;;;6065269;23;20003;-78
2023/09/13 03:41:20;;;;;;;14.68;10.23;;;;;;;;;;6066142;23;20022;-78
2023/09/13 03:43:46;;;;;;;16.13;11.38;;;;;;;;;;6068287;23;20003;-77
2023/09/13 03:46:12;;;;;;;14.20;10.70;;;;;;;;;;6070002;23;20002;-77
2023/09/13 03:48:38;;;;;;;13.55;10.98;;;;;;;;;;6066574;23;20022;-78
2023/09/13 03:51:05;;;;;;;14.07;11.65;;;;;;;;;;6067710;23;20263;-81
2023/09/13 03:53:31;;;;;;;16.52;10.93;;;;;;;;;;6065502;23;20078;-79
2023/09/13 03:55:59;;;;;;;13.25;10.93;;;;;;;;;;6064620;23;20497;-78
2023/09/13 03:58:24;;;;;;;15.88;10.90;;;;;;;;;;6063750;23;20033;-78
2023/09/13 04:00:50;;;;;;;18.02;11.32;;;;;;;;;;6062746;23;20409;-80
2023/09/13 04:03:16;;;;;;;18.50;11.48;;;;;;;;;;6062961;23;20013;-78
2023/09/13 04:05:42;;;;;;;16.00;13.15;;;;;;;;;;6064009;23;20006;-78
2023/09/13 04:08:07;;;;;;;15.63;11.18;;;;;;;;;;6062693;23;20061;-78
2023/09/13 04:10:33;;;;;;;15.95;11.65;;;;;;;;;;6063335;23;20035;-78
2023/09/13 04:12:58;;;;;;;17.58;11.77;;;;;;;;;;6063572;23;20086;-79
2023/09/13 04:15:24;;;;;;;13.43;10.80;;;;;;;;;;6063441;23;20006;-77
2023/09/13 04:17:50;;;;;;;16.50;11.82;;;;;;;;;;6062243;23;20121;-79
2023/09/13 04:20:16;;;;;;;19.27;11.10;;;;;;;;;;6062464;23;20101;-79
2023/09/13 04:22:41;;;;;;;15.90;11.63;;;;;;;;;;6062687;23;20017;-79
2023/09/13 04:25:08;;;;;;;16.23;11.38;;;;;;;;;;6062887;23;20118;-78
2023/09/13 04:27:35;;;;;;;21.38;13.02;;;;;;;;;;6060834;23;20021;-77
2023/09/13 04:30:01;;;;;;;16.48;10.98;;;;;;;;;;6079838;23;20019;-82
2023/09/13 04:32:27;;;;;;;17.90;11.75;;;;;;;;;;6063582;23;19999;-80
2023/09/13 04:34:53;;;;;;;14.75;11.63;;;;;;;;;;6064190;23;20011;-80
2023/09/13 04:37:20;;;;;;;15.82;11.10;;;;;;;;;;6064928;23;20011;-80
2023/09/13 04:39:45;;;;;;;22.52;12.10;;;;;;;;;;6062773;23;20046;-77
2023/09/13 04:42:13;;;;;;;16.02;12.23;;;;;;;;;;6066225;23;20010;-81
2023/09/13 04:44:40;;;;;;;23.73;13.20;;;;;;;;;;6064127;23;20007;-80
2023/09/13 04:47:06;;;;;;;13.73;11.05;;;;;;;;;;6062438;23;20086;-78
2023/09/13 04:49:32;;;;;;;17.10;11.32;;;;;;;;;;6062153;23;20022;-86
2023/09/13 04:51:59;;;;;;;20.25;12.82;;;;;;;;;;6067284;23;20003;-79
2023/09/13 04:54:25;;;;;;;15.73;11.65;;;;;;;;;;6063326;23;20014;-77
2023/09/13 04:56:50;;;;;;;18.17;12.70;;;;;;;;;;6060099;23;20024;-75
2023/09/13 04:59:18;;;;;;;16.10;11.80;;;;;;;;;;6062374;23;20003;-77
2023/09/13 05:01:44;;;;;;;17.88;12.68;;;;;;;;;;6064256;23;20011;-76
2023/09/13 05:04:10;;;;;;;17.85;12.00;;;;;;;;;;6038408;23;20061;-77
2023/09/13 05:06:36;;;;;;;22.52;13.27;;;;;;;;;;6064121;23;20007;-79
2023/09/13 05:09:02;;;;;;;21.58;12.10;;;;;;;;;;6062070;23;20014;-75
2023/09/13 05:11:28;;;;;;;17.20;11.93;;;;;;;;;;6064184;23;20002;-76
2023/09/13 05:14:14;;;;;;;16.45;12.07;;;;;;;;;;6062286;23;20049;-76
2023/09/13 05:16:40;;;;;;;22.13;12.52;;;;;;;;;;6064575;23;20010;-76
2023/09/13 05:19:06;;;;;;;19.75;12.38;;;;;;;;;;6087934;23;20014;-76
2023/09/13 05:21:31;;;;;;;20.27;12.45;;;;;;;;;;6069328;23;20014;-78
2023/09/13 05:23:57;;;;;;;19.27;12.18;;;;;;;;;;6070496;23;20085;-77
2023/09/13 05:26:25;;;;;;;17.17;11.43;;;;;;;;;;6069639;23;20041;-78
2023/09/13 05:28:50;;;;;;;17.25;11.95;;;;;;;;;;6068090;23;20014;-77
2023/09/13 05:31:16;;;;;;;18.13;12.25;;;;;;;;;;6070237;23;20602;-78
2023/09/13 05:33:42;;;;;;;15.85;11.27;;;;;;;;;;6070037;23;20017;-76
2023/09/13 05:36:12;;;;;;;17.63;11.60;;;;;;;;;;6069398;23;20010;-77
2023/09/13 05:38:38;;;;;;;16.17;11.07;;;;;;;;;;6067371;23;20432;-76
2023/09/13 05:41:11;;;;;;;23.50;12.18;;;;;;;;;;6070510;23;20002;-76
2023/09/13 05:43:41;;;;;;;18.27;13.60;;;;;;;;;;6069963;23;20483;-76
2023/09/13 05:46:07;;;;;;;15.02;11.30;;;;;;;;;;6068397;23;20006;-76
2023/09/13 05:48:34;;;;;;;15.10;11.60;;;;;;;;;;6092434;23;20451;-77
2023/09/13 05:51:00;;;;;;;17.77;11.88;;;;;;;;;;6093607;23;19998;-77
2023/09/13 05:53:25;;;;;;;13.25;11.15;;;;;;;;;;6092002;23;20006;-76
2023/09/13 05:55:51;;;;;;;13.52;11.35;;;;;;;;;;6067756;23;20034;-77
2023/09/13 05:58:17;;;;;;;15.77;11.38;;;;;;;;;;6069130;23;20030;-77
2023/09/13 06:00:49;;;;;;;15.30;11.93;;;;;;;;;;6067744;23;20061;-75
2023/09/13 06:03:18;;;;;;;;;;;;;;;;;;6068635;23;20098;-78
2023/09/13 06:05:44;;;;;;;19.95;12.32;;;;;;;;;;6090434;23;19992;-76
2023/09/13 06:08:10;;;;;;;16.80;12.18;;;;;;;;;;6065978;23;20013;-76
2023/09/13 06:10:35;;;;;;;17.40;13.38;;;;;;;;;;6089152;23;20006;-76
2023/09/13 06:13:01;;;;;;;20.02;12.85;;;;;;;;;;6092358;23;20084;-76
2023/09/13 06:15:27;;;;;;;22.20;12.70;;;;;;;;;;6069110;23;20006;-76
2023/09/13 06:17:54;;;;;;;15.95;12.25;;;;;;;;;;6064042;23;20106;-76
2023/09/13 06:20:21;;;;;;;15.07;12.38;;;;;;;;;;6067393;23;20010;-76
2023/09/13 06:22:48;;;;;;;22.13;13.63;;;;;;;;;;6065845;23;20407;-75
2023/09/13 06:25:16;;;;;;;18.90;12.80;;;;;;;;;;6064475;23;20014;-75
2023/09/13 06:27:44;;;;;;;18.45;11.95;;;;;;;;;;6062733;23;20026;-75
2023/09/13 06:30:10;;;;;;;18.25;12.75;;;;;;;;;;6062387;23;20127;-76
2023/09/13 06:32:40;;;;;;;16.42;11.57;;;;;;;;;;6055175;23;19999;-77
2023/09/13 06:35:08;;;;;;;17.38;11.48;;;;;;;;;;6058679;23;20428;-78
2023/09/13 06:37:37;;;;;;;16.38;11.55;;;;;;;;;;6058887;23;20086;-74
2023/09/13 06:40:03;;;;;;;20.40;12.35;;;;;;;;;;6056142;23;20041;-79
2023/09/13 06:42:29;;;;;;;23.27;13.20;;;;;;;;;;6061995;23;20007;-77
2023/09/13 06:44:56;;;;;;;17.42;11.77;;;;;;;;;;6061939;23;20021;-76
2023/09/13 06:47:21;;;;;;;17.08;12.77;;;;;;;;;;6061210;23;20328;-76
2023/09/13 06:49:47;;;;;;;27.05;13.27;;;;;;;;;;6060890;23;20085;-75
2023/09/13 06:52:17;;;;;;;18.73;11.77;;;;;;;;;;6034836;23;20093;-76
2023/09/13 06:54:42;;;;;;;17.65;12.05;;;;;;;;;;6060767;23;20007;-76
2023/09/13 06:57:08;;;;;;;18.20;12.57;;;;;;;;;;6061336;23;20010;-75
2023/09/13 06:59:35;;;;;;;20.13;11.80;;;;;;;;;;6057914;23;20078;-81
2023/09/13 07:02:02;;;;;;;15.98;12.15;;;;;;;;;;6057990;23;20097;-78
2023/09/13 07:04:30;;;;;;;16.33;11.80;;;;;;;;;;6068025;23;20010;-79
2023/09/13 07:06:56;;;;;;;17.98;11.40;;;;;;;;;;6066810;23;20007;-79
2023/09/13 07:09:25;;;;;;;16.38;11.57;;;;;;;;;;6069959;23;20033;-77
2023/09/13 07:11:51;;;;;;;18.50;11.10;;;;;;;;;;6068061;23;20416;-74
2023/09/13 07:14:18;;;;;;;18.15;13.05;;;;;;;;;;6066341;23;20006;-80
2023/09/13 07:16:43;;;;;;;13.98;11.63;;;;;;;;;;6075887;23;20034;-77
2023/09/13 07:19:15;;;;;;;20.17;11.65;;;;;;;;;;6101418;23;20022;-81
2023/09/13 07:21:41;;;;;;;14.07;11.02;;;;;;;;;;6102248;23;20006;-77
2023/09/13 07:24:15;;;;;;;17.50;11.93;;;;;;;;;;6081815;23;20022;-81
2023/09/13 07:26:41;;;;;;;22.00;12.30;;;;;;;;;;6107828;23;20006;-80
2023/09/13 07:29:07;;;;;;;23.33;11.77;;;;;;;;;;6081741;23;20029;-81
2023/09/13 07:31:33;;;;;;;16.45;11.32;;;;;;;;;;6088320;23;20022;-78
2023/09/13 07:34:04;;;;;;;16.23;11.45;;;;;;;;;;6088850;23;20002;-80
2023/09/13 07:36:37;;;;;;;;;;;;;;;;;;6111764;23;20007;-80
2023/09/13 07:39:04;;;;;;;17.33;10.43;;;;;;;;;;6076161;23;20079;-79
2023/09/13 07:41:30;;;;;;;15.52;10.07;;;;;;;;;;6072402;23;20050;-78
2023/09/13 07:44:03;;;;;;;15.27;10.32;;;;;;;;;;6096807;23;20018;-80
2023/09/13 07:46:34;;;;;;;17.42;10.10;;;;;;;;;;6083296;23;20062;-82
2023/09/13 07:49:36;;;;;;;12.75;10.55;;;;;;;;;;6081555;23;20089;-81
2023/09/13 07:52:06;;;;;;;16.15;10.57;;;;;;;;;;6074189;23;20296;-83
2023/09/13 07:54:32;;;;;;;15.27;10.52;;;;;;;;;;6049619;23;20022;-79
2023/09/13 07:57:03;;;;;;;18.00;12.18;;;;;;;;;;6073460;23;20007;-78
2023/09/13 07:59:29;;;;;;;17.88;9.93;;;;;;;;;;6108619;23;20002;-80
2023/09/13 08:01:57;;;;;;;14.25;9.25;;;;;;;;;;6081071;23;20025;-79
2023/09/13 08:04:24;;;;;;;15.63;9.77;;;;;;;;;;6059400;23;20025;-82
2023/09/13 08:06:50;;;;;;;13.98;9.50;;;;;;;;;;6072506;23;20014;-79
2023/09/13 08:09:22;;;;;;;10.18;9.10;;;;;;;;;;6074373;23;20022;-84
2023/09/13 08:11:53;;;;;;;17.58;9.57;;;;;;;;;;6072499;23;20014;-78
2023/09/13 08:14:23;;;;;;;19.30;10.05;;;;;;;;;;6065732;23;20439;-78
2023/09/13 08:16:49;;;;;;;12.63;10.43;;;;;;;;;;6067454;23;20003;-75
2023/09/13 08:19:49;;;;;;;11.13;9.07;;;;;;;;;;6070814;23;20026;-79
2023/09/13 08:22:22;;;;;;;12.90;9.10;;;;;;;;;;6064878;23;20018;-79
2023/09/13 08:25:08;;;;;;;15.88;9.35;;;;;;;;;;6099631;23;20073;-80
2023/09/13 08:28:06;;;;;;;11.73;9.93;;;;;;;;;;6054996;23;20116;-79
2023/09/13 08:30:53;;;;;;;13.68;10.43;;;;;;;;;;6097375;23;20084;-81
2023/09/13 08:33:23;;;;;;;17.33;10.07;;;;;;;;;;6071328;23;20010;-82
2023/09/13 08:35:49;;;;;;;17.40;10.57;;;;;;;;;;6076864;23;20007;-77
2023/09/13 08:38:28;;;;;;;15.07;9.73;;;;;;;;;;6094375;23;20072;-81
2023/09/13 08:40:54;;;;;;;15.25;10.50;;;;;;;;;;6063906;23;20010;-78
2023/09/13 08:43:21;;;;;;;15.05;9.35;;;;;;;;;;6058503;23;20018;-78
2023/09/13 08:45:49;;;;;;;13.45;9.85;;;;;;;;;;6063347;23;20117;-76
2023/09/13 08:48:16;;;;;;;15.80;11.40;;;;;;;;;;6089070;23;20066;-78
2023/09/13 08:50:42;;;;;;;18.02;10.07;;;;;;;;;;6062082;23;20045;-77
2023/09/13 08:53:10;;;;;;;13.48;9.65;;;;;;;;;;6030400;23;20014;-78
2023/09/13 08:55:37;;;;;;;16.20;11.02;;;;;;;;;;6039093;23;20022;-77
2023/09/13 08:58:04;;;;;;;12.02;8.95;;;;;;;;;;6038232;23;20018;-77
2023/09/13 09:00:39;;;;;;;13.40;9.45;;;;;;;;;;6062254;23;20010;-77
2023/09/13 09:03:06;;;;;;;12.25;9.32;;;;;;;;;;6060074;23;20006;-75
2023/09/13 09:05:35;;;;;;;12.63;8.63;;;;;;;;;;6063338;23;20021;-77
2023/09/13 09:08:03;;;;;;;14.13;9.40;;;;;;;;;;6064051;23;20014;-75
2023/09/13 09:10:29;;;;;;;9.68;8.43;;;;;;;;;;6067184;23;20514;-76
2023/09/13 09:12:57;;;;;;;10.07;8.48;;;;;;;;;;6058342;23;20045;-75
2023/09/13 09:15:24;;;;;;;9.88;7.80;;;;;;;;;;6042180;23;20010;-78
2023/09/13 09:17:55;;;;;;;10.27;7.70;;;;;;;;;;6090228;23;20018;-78
2023/09/13 09:20:28;;;;;;;12.27;7.88;;;;;;;;;;6091072;23;20017;-75
2023/09/13 09:22:57;;;;;;;8.45;7.15;;;;;;;;;;6040233;23;20336;-79
2023/09/13 09:25:24;;;;;;;9.52;7.55;;;;;;;;;;6065975;23;20048;-75
2023/09/13 09:27:50;;;;;;;11.45;7.38;;;;;;;;;;6092938;23;20395;-77
2023/09/13 09:30:21;;;;;;;13.68;7.70;;;;;;;;;;6067907;23;20089;-75
2023/09/13 09:32:46;;;;;;;12.13;7.65;;;;;;;;;;6087227;23;20062;-76
2023/09/13 09:35:14;;;;;;;7.95;6.68;;;;;;;;;;6064554;23;20006;-76
2023/09/13 09:37:40;;;;;;;9.43;5.55;;;;;;;;;;6087741;23;20133;-75
2023/09/13 09:40:14;;;;;;;7.93;5.97;;;;;;;;;;6088934;23;20038;-77
2023/09/13 09:42:40;;;;;;;10.65;6.45;;;;;;;;;;6085872;23;20420;-79
2023/09/13 09:45:06;;;;;;;12.65;6.45;;;;;;;;;;6089431;23;20006;-78
2023/09/13 09:47:41;;;;;;;8.45;5.53;;;;;;;;;;6062332;23;20010;-76
2023/09/13 09:50:10;;;;;;;7.05;5.40;;;;;;;;;;6066859;23;20010;-77
2023/09/13 09:52:36;;;;;;;8.15;5.40;;;;;;;;;;6060457;23;20010;-79
2023/09/13 09:55:04;;;;;;;12.68;6.10;;;;;;;;;;6086924;23;20106;-77
2023/09/13 09:57:33;;;;;;;6.85;5.13;;;;;;;;;;6071872;23;20483;-78
2023/09/13 09:59:59;;;;;;;6.55;4.93;;;;;;;;;;6078840;23;20021;-78
2023/09/13 10:02:26;;;;;;;10.43;5.60;;;;;;;;;;6062193;23;20106;-77
2023/09/13 10:04:52;;;;;;;7.75;5.70;;;;;;;;;;6065607;23;20112;-78
2023/09/13 10:07:18;;;;;;;9.95;5.43;;;;;;;;;;6064347;23;20022;-77
2023/09/13 10:09:46;;;;;;;7.65;5.13;;;;;;;;;;6093356;23;20495;-76
2023/09/13 10:12:13;;;;;;;10.32;4.68;;;;;;;;;;6040936;23;20010;-79
2023/09/13 10:14:41;;;;;;;6.65;4.53;;;;;;;;;;6091441;23;20002;-78
2023/09/13 10:17:07;;;;;;;10.65;5.10;;;;;;;;;;6040806;23;20533;-78
2023/09/13 10:19:35;;;;;;;6.10;4.93;;;;;;;;;;6066137;23;20010;-76
2023/09/13 10:22:01;;;;;;;6.70;5.10;;;;;;;;;;6063112;23;20018;-78
2023/09/13 10:24:47;;;;;;;7.93;5.32;;;;;;;;;;6042258;23;20321;-78
2023/09/13 10:27:13;;;;;;;9.02;4.70;;;;;;;;;;6068814;23;20432;-77
2023/09/13 10:29:55;;;;;;;5.95;4.63;;;;;;;;;;6066018;23;20014;-77
2023/09/13 10:32:23;;;;;;;7.82;5.57;;;;;;;;;;6063082;23;20006;-77
2023/09/13 10:34:53;;;;;;;7.47;5.38;;;;;;;;;;6065192;23;20010;-78
2023/09/13 10:37:44;;;;;;;7.03;5.53;;;;;;;;;;6090745;23;20098;-76
2023/09/13 10:40:53;;;;;;;7.50;5.50;;;;;;;;;;6064041;23;20010;-77
2023/09/13 10:43:21;;;;;;;12.75;5.80;;;;;;;;;;6058908;23;20011;-78
2023/09/13 10:45:50;;;;;;;10.85;6.28;;;;;;;;;;6090666;23;20002;-77
2023/09/13 10:48:17;;;;;;;18.42;7.35;;;;;;;;;;6062252;23;20068;-77
2023/09/13 10:50:43;;;;;;;11.35;6.70;;;;;;;;;;6088370;23;19999;-78
2023/09/13 10:53:09;;;;;;;13.88;6.75;;;;;;;;;;6056480;23;20545;-78
2023/09/13 10:55:39;;;;;;;11.07;6.28;;;;;;;;;;6062897;23;20207;-79
2023/09/13 10:58:08;;;;;;;9.40;6.55;;;;;;;;;;6064143;23;20152;-78
2023/09/13 11:00:36;;;;;;;10.52;6.70;;;;;;;;;;6064003;23;20412;-77
2023/09/13 11:03:03;;;;;;;16.30;7.38;;;;;;;;;;6085310;23;20064;-76
2023/09/13 11:05:30;;;;;;;10.80;7.05;;;;;;;;;;6063106;23;20458;-76
2023/09/13 11:07:56;;;;;;;11.15;6.50;;;;;;;;;;6037329;23;20099;-76
2023/09/13 11:10:21;;;;;;;11.98;6.43;;;;;;;;;;6062625;23;20014;-77
2023/09/13 11:12:50;;;;;;;12.85;6.45;;;;;;;;;;6063074;23;20037;-78
2023/09/13 11:15:26;;;;;;;10.82;6.07;;;;;;;;;;6065558;23;20049;-76
2023/09/13 11:18:12;;;;;;;10.20;7.20;;;;;;;;;;6042933;23;20026;-78
2023/09/13 11:20:40;;;;;;;9.07;6.72;;;;;;;;;;6071949;23;20006;-79
2023/09/13 11:23:12;;;;;;;11.82;6.90;;;;;;;;;;6091491;23;20098;-78
2023/09/13 11:25:38;;;;;;;10.35;6.47;;;;;;;;;;6060746;23;20014;-77
2023/09/13 11:28:27;;;;;;;9.38;5.47;;;;;;;;;;6062141;23;20010;-77
2023/09/13 11:30:57;;;;;;;9.60;5.70;;;;;;;;;;6063080;23;20013;-77
2023/09/13 11:33:23;;;;;;;10.40;5.90;;;;;;;;;;6057581;23;20017;-77
2023/09/13 11:35:50;;;;;;;10.27;6.13;;;;;;;;;;6062775;23;20014;-77
2023/09/13 11:38:17;;;;;;;10.95;5.35;;;;;;;;;;6089574;23;20013;-76
2023/09/13 11:40:50;;;;;;;9.13;5.30;;;;;;;;;;6063253;23;20002;-80
2023/09/13 11:43:29;;;;;;;8.75;5.63;;;;;;;;;;6088780;23;20017;-77
2023/09/13 11:45:56;;;;;;;6.68;5.05;;;;;;;;;;6040636;23;20044;-77
2023/09/13 11:48:40;;;;;;;5.65;5.05;;;;;;;;;;6065004;23;20010;-77
2023/09/13 11:51:14;;;;;;;6.60;5.53;;;;;;;;;;6064690;23;20127;-78
2023/09/13 11:53:41;;;;;;;9.85;5.93;;;;;;;;;;6058126;23;20065;-76
2023/09/13 11:56:28;;;;;;;9.52;5.57;;;;;;;;;;6090524;23;20013;-78
2023/09/13 11:59:00;;;;;;;5.97;5.13;;;;;;;;;;6065035;23;20013;-76
2023/09/13 12:01:29;;;;;;;7.30;4.68;;;;;;;;;;6064523;23;20097;-77
2023/09/13 12:03:58;;;;;;;9.20;4.90;;;;;;;;;;6088478;23;20002;-78
2023/09/13 12:06:27;;;;;;;11.20;5.63;;;;;;;;;;6066406;23;20007;-77
2023/09/13 12:08:55;;;;;;;7.32;4.90;;;;;;;;;;6063433;23;20037;-75
2023/09/13 12:11:26;;;;;;;6.00;4.67;;;;;;;;;;6093252;23;20432;-78
2023/09/13 12:13:55;;;;;;;10.70;4.95;;;;;;;;;;6065929;23;20065;-77
2023/09/13 12:16:22;;;;;;;10.52;5.03;;;;;;;;;;6075638;23;20069;-77
2023/09/13 12:18:48;;;;;;;5.47;4.22;;;;;;;;;;6069546;23;20030;-80
2023/09/13 12:21:14;;;;;;;6.93;4.18;;;;;;;;;;6065767;23;20098;-75
2023/09/13 12:23:49;;;;;;;7.03;4.13;;;;;;;;;;6059249;23;20011;-76
2023/09/13 12:26:17;;;;;;;5.70;4.35;;;;;;;;;;6058155;23;20010;-76
2023/09/13 12:28:43;;;;;;;5.72;4.28;;;;;;;;;;6058009;23;20018;-76
2023/09/13 12:31:10;;;;;;;3.88;3.45;;;;;;;;;;6059114;23;20011;-76
2023/09/13 12:33:45;;;;;;;9.50;4.05;;;;;;;;;;6055078;23;20159;-76
2023/09/13 12:36:11;;;;;;;4.97;3.20;;;;;;;;;;6059329;23;20395;-75
2023/09/13 12:38:43;;;;;;;3.33;2.88;;;;;;;;;;6057123;23;20007;-77
2023/09/13 12:41:10;;;;;;;5.30;3.30;;;;;;;;;;6059348;23;20038;-75
2023/09/13 12:43:36;;;;;;;8.23;3.10;;;;;;;;;;6055975;23;20014;-76
2023/09/13 12:46:05;;;;;;;6.45;3.08;;;;;;;;;;6060669;23;20007;-77
2023/09/13 12:48:31;;;;;;;14.02;3.47;;;;;;;;;;6060300;23;20101;-76
2023/09/13 12:50:59;;;;;;;7.30;2.67;;;;;;;;;;6061964;23;20010;-76
2023/09/13 12:53:29;;;;;;;7.85;3.30;;;;;;;;;;6033787;23;20356;-76
2023/09/13 12:55:55;;;;;;;3.63;3.00;;;;;;;;;;6059394;23;20014;-77
2023/09/13 12:58:21;;;;;;;7.30;3.10;;;;;;;;;;6057929;23;20234;-77
2023/09/13 13:01:03;;;;;;;5.18;2.85;;;;;;;;;;6060983;23;20010;-77
2023/09/13 13:03:32;;;;;;;5.53;3.22;;;;;;;;;;6059499;23;20018;-75
2023/09/13 13:06:01;;;;;;;4.95;3.22;;;;;;;;;;6061268;23;20069;-77
2023/09/13 13:08:36;;;;;;;4.20;3.55;;;;;;;;;;6056703;23;20027;-78
2023/09/13 13:11:04;;;;;;;4.30;3.50;;;;;;;;;;6057894;23;20064;-76
2023/09/13 13:13:38;;;;;;;5.75;3.20;;;;;;;;;;6059573;23;20090;-76
2023/09/13 13:16:21;;;;;;;4.88;3.20;;;;;;;;;;6059360;23;20616;-75
2023/09/13 13:18:52;;;;;;;6.40;4.65;;;;;;;;;;6055267;23;20026;-78
2023/09/13 13:21:19;;;;;;;5.63;3.30;;;;;;;;;;6057669;23;20014;-76
2023/09/13 13:23:47;;;;;;;5.57;3.40;;;;;;;;;;6059653;23;20026;-76
2023/09/13 13:26:18;;;;;;;7.10;4.18;;;;;;;;;;6054670;23;20017;-78
2023/09/13 13:28:44;;;;;;;5.80;3.95;;;;;;;;;;6056483;23;20392;-74
2023/09/13 13:31:13;;;;;;;7.78;3.30;;;;;;;;;;6059193;23;20009;-76
2023/09/13 13:33:38;;;;;;;5.40;3.58;;;;;;;;;;6057739;23;20006;-76
2023/09/13 13:36:05;;;;;;;10.15;3.42;;;;;;;;;;6060502;23;20010;-76
2023/09/13 13:38:31;;;;;;;8.45;3.78;;;;;;;;;;6057384;23;20356;-76
2023/09/13 13:41:10;;;;;;;4.13;3.35;;;;;;;;;;6058979;23;20010;-74
2023/09/13 13:43:36;;;;;;;5.10;3.38;;;;;;;;;;6060353;23;20002;-79
2023/09/13 13:46:03;;;;;;;5.10;3.70;;;;;;;;;;6059734;23;20011;-77
2023/09/13 13:48:30;;;;;;;5.63;3.40;;;;;;;;;;6034426;23;20019;-77
2023/09/13 13:51:03;;;;;;;6.07;4.25;;;;;;;;;;6059420;23;20017;-74
2023/09/13 13:53:30;;;;;;;5.45;4.00;;;;;;;;;;6057056;23;20078;-78
2023/09/13 13:55:56;;;;;;;7.13;3.80;;;;;;;;;;6060757;23;20018;-77
2023/09/13 13:58:24;;;;;;;4.57;3.70;;;;;;;;;;6057215;23;20323;-77
2023/09/13 14:00:50;;;;;;;5.28;3.30;;;;;;;;;;6058365;23;20010;-76
2023/09/13 14:03:21;;;;;;;10.73;3.70;;;;;;;;;;6081597;23;20015;-78
2023/09/13 14:05:49;;;;;;;7.70;3.78;;;;;;;;;;6038833;23;20098;-77
2023/09/13 14:08:19;;;;;;;5.22;3.60;;;;;;;;;;6033427;23;20053;-74
2023/09/13 14:10:45;;;;;;;5.55;3.88;;;;;;;;;;6061607;23;20007;-75
2023/09/13 14:13:16;;;;;;;6.38;4.30;;;;;;;;;;6059426;23;20681;-75
2023/09/13 14:15:44;;;;;;;6.15;3.45;;;;;;;;;;6036276;23;20329;-78
2023/09/13 14:18:09;;;;;;;4.88;3.75;;;;;;;;;;6057784;23;20026;-75
2023/09/13 14:20:41;;;;;;;4.70;3.95;;;;;;;;;;6060950;23;20022;-77
2023/09/13 14:23:12;;;;;;;5.85;4.70;;;;;;;;;;6057922;23;20086;-76
2023/09/13 14:25:38;;;;;;;5.30;4.07;;;;;;;;;;6061277;23;20054;-77
2023/09/13 14:28:05;;;;;;;7.80;4.30;;;;;;;;;;6060124;23;20014;-75
2023/09/13 14:30:32;;;;;;;6.40;4.25;;;;;;;;;;6058932;23;20010;-78
2023/09/13 14:32:57;;;;;;;6.10;4.40;;;;;;;;;;6052464;23;20646;-76
2023/09/13 14:35:23;;;;;;;4.80;3.45;;;;;;;;;;6060358;23;20054;-74
2023/09/13 14:37:50;;;;;;;5.95;3.97;;;;;;;;;;6058827;23;20445;-78